Time;durP1;ratioP1;P1;durP2;ratioP2;P2;SDS_P1;SDS_P2;PMS_P1;PMS_P2;Temp;Humidity;BMP_temperature;BMP_pressure;BME280_temperature;BME280_humidity;BME280_pressure;Samples;Min_cycle;Max_cycle;Signal;HPM_P1;HPM_P2
2023/07/02 14:41:59;;;;;;;5.10;4.60;;;;;;;26.47;57.57;97799.45;103556;1286;616174;-23
2023/07/02 14:44:26;;;;;;;5.60;4.70;;;;;;;26.25;59.60;97796.61;105188;1263;61072;-23
2023/07/02 14:46:53;;;;;;;5.80;4.50;;;;;;;26.09;58.79;97796.87;105236;1263;61157;-23
2023/07/02 14:49:21;;;;;;;6.20;4.60;;;;;;;25.88;59.20;97800.41;105112;1264;72339;-24
2023/07/02 14:51:47;;;;;;;6.20;4.60;;;;;;;25.77;60.41;97802.20;105227;1264;74328;-23
2023/07/02 14:54:14;;;;;;;5.00;4.50;;;;;;;25.69;62.15;97799.83;103329;1261;2557950;-23
2023/07/02 14:56:41;;;;;;;4.30;3.90;;;;;;;25.70;62.34;97799.69;105251;1261;61048;-23
2023/07/02 14:59:08;;;;;;;4.60;4.20;;;;;;;25.73;61.31;97800.62;105205;1260;61351;-23
2023/07/02 15:01:36;;;;;;;5.20;4.20;;;;;;;25.73;61.91;97801.27;105273;1261;72089;-23
2023/07/02 15:04:03;;;;;;;6.90;4.50;;;;;;;25.71;61.70;97801.94;105259;1261;74371;-23
2023/07/02 15:06:32;;;;;;;5.00;4.40;;;;;;;25.68;62.01;97797.11;105701;1254;72507;-23
2023/07/02 15:09:01;;;;;;;4.90;4.10;;;;;;;25.68;62.82;97796.80;105599;1254;61173;-24
2023/07/02 15:11:28;;;;;;;4.90;4.40;;;;;;;25.80;63.28;97794.39;105700;1261;61162;-24
2023/07/02 15:13:55;;;;;;;4.60;4.00;;;;;;;26.10;63.51;97786.32;105684;1254;72846;-23
2023/07/02 15:16:22;;;;;;;5.00;4.20;;;;;;;26.45;60.28;97792.40;105701;1254;74849;-23
2023/07/02 15:18:49;;;;;;;5.70;4.20;;;;;;;26.72;59.00;97792.83;105665;1254;72591;-23
2023/07/02 15:21:18;;;;;;;6.30;4.00;;;;;;;26.75;57.07;97786.80;105721;1254;61239;-23
2023/07/02 15:23:45;;;;;;;5.60;4.60;;;;;;;26.36;58.67;97797.10;105677;1259;61179;-23
2023/07/02 15:26:12;;;;;;;5.10;4.60;;;;;;;26.19;59.78;97796.20;105655;1254;73008;-23
2023/07/02 15:28:39;;;;;;;5.50;4.50;;;;;;;26.01;60.58;97797.14;105702;1254;74800;-23
2023/07/02 15:31:08;;;;;;;5.40;4.80;;;;;;;25.96;60.51;97799.19;105676;1254;72841;-23
2023/07/02 15:33:35;;;;;;;5.30;4.40;;;;;;;25.83;59.33;97799.09;105476;1254;61064;-23
2023/07/02 15:36:04;;;;;;;5.00;4.30;;;;;;;25.65;58.42;97797.45;105498;1260;61156;-23
2023/07/02 15:38:31;;;;;;;5.30;4.70;;;;;;;25.46;59.53;97797.02;105459;1254;73043;-23
2023/07/02 15:41:15;;;;;;;7.00;4.50;;;;;;;25.21;60.11;97799.02;105590;1258;73004;-23
2023/07/02 15:43:43;;;;;;;6.30;4.60;;;;;;;25.16;61.33;97811.75;105286;1257;71829;-23
2023/07/02 15:46:13;;;;;;;5.20;4.30;;;;;;;25.09;60.18;97811.58;105345;1257;61084;-23
2023/07/02 15:48:42;;;;;;;5.00;4.30;;;;;;;24.95;61.37;97809.98;105556;1263;61173;-23
2023/07/02 15:51:09;;;;;;;5.00;4.50;;;;;;;24.63;61.83;97810.48;105529;1257;72931;-23
2023/07/02 15:53:40;;;;;;;6.30;4.80;;;;;;;24.37;63.34;97815.84;105394;1257;74316;-23
2023/07/02 15:56:06;;;;;;;4.90;4.40;;;;;;;24.08;65.00;97815.55;105298;1257;71262;-23
2023/07/02 15:58:33;;;;;;;5.70;4.60;;;;;;;23.85;66.76;97826.33;105650;1257;61045;-23
2023/07/02 16:01:20;;;;;;;5.20;3.60;;;;;;;23.73;67.87;97834.70;105442;1259;61242;-23
2023/07/02 16:03:47;;;;;;;4.50;3.60;;;;;;;24.16;67.33;97836.62;105216;1257;73136;-23
2023/07/02 16:06:14;;;;;;;5.40;4.10;;;;;;;24.49;65.79;97836.98;105303;1263;74369;-24
2023/07/02 16:08:42;;;;;;;8.00;4.60;;;;;;;24.39;65.52;97833.42;105409;1257;72653;-23
2023/07/02 16:11:10;;;;;;;4.60;4.00;;;;;;;24.21;65.74;97829.67;105353;1257;61049;-23
2023/07/02 16:13:40;;;;;;;5.80;4.90;;;;;;;24.06;66.62;97824.73;105438;1262;61214;-23
2023/07/02 16:16:08;;;;;;;6.40;4.70;;;;;;;23.84;67.25;97825.63;105464;1257;71890;-23
2023/07/02 16:18:36;;;;;;;5.90;4.80;;;;;;;23.65;67.97;97825.75;105236;1266;74364;-23
2023/07/02 16:21:03;;;;;;;7.40;4.70;;;;;;;23.48;68.87;97823.98;105547;1258;72480;-23
2023/07/02 16:23:30;;;;;;;3.80;3.40;;;;;;;23.38;69.35;97827.15;105627;1257;61942;-23
2023/07/02 16:26:03;;;;;;;5.20;3.50;;;;;;;23.80;69.14;97826.84;105515;1260;61170;-24
2023/07/02 16:28:31;;;;;;;;;;;;;;;24.31;67.48;97827.58;105185;1264;73008;-23
2023/07/02 16:30:58;;;;;;;5.20;3.80;;;;;;;24.34;66.40;97832.20;105573;1257;74309;-23
2023/07/02 16:33:26;;;;;;;4.60;4.20;;;;;;;24.15;66.68;97833.89;105441;1258;72900;-23
2023/07/02 16:35:53;;;;;;;5.60;4.60;;;;;;;23.89;66.87;97839.80;105311;1257;61172;-23
2023/07/02 16:38:20;;;;;;;5.20;4.40;;;;;;;23.70;67.92;97842.79;105465;1262;61124;-23
2023/07/02 16:40:48;;;;;;;7.60;4.80;;;;;;;23.57;68.58;97845.44;105484;1258;73462;-23
2023/07/02 16:43:15;;;;;;;4.60;4.20;;;;;;;23.49;68.74;97846.77;105605;1257;74385;-23
2023/07/02 16:45:42;;;;;;;4.70;4.10;;;;;;;23.42;69.05;97851.33;105638;1257;72635;-23
2023/07/02 16:48:10;;;;;;;3.80;3.30;;;;;;;23.40;69.95;97850.60;105468;1257;61780;-23
2023/07/02 16:50:37;;;;;;;5.90;3.70;;;;;;;24.01;68.37;97849.23;105153;1257;61186;-23
2023/07/02 16:53:04;;;;;;;4.20;3.80;;;;;;;24.63;65.81;97851.52;105496;1258;73108;-24
2023/07/02 16:55:34;;;;;;;4.40;4.00;;;;;;;24.72;64.57;97851.17;105572;1258;74237;-23
2023/07/02 16:58:01;;;;;;;6.20;3.90;;;;;;;24.59;65.12;97858.92;105413;1262;71284;-23
2023/07/02 17:00:28;;;;;;;5.20;4.30;;;;;;;24.38;65.76;97862.67;105367;1258;61147;-23
2023/07/02 17:02:55;;;;;;;5.30;4.30;;;;;;;24.11;65.34;97860.00;105452;1260;61249;-23
2023/07/02 17:05:24;;;;;;;5.30;4.80;;;;;;;23.87;65.12;97864.87;105626;1258;73627;-23
2023/07/02 17:07:51;;;;;;;4.90;3.90;;;;;;;23.63;65.49;97867.33;105661;1257;74393;-23
2023/07/02 17:10:19;;;;;;;4.70;4.20;;;;;;;23.48;66.01;97871.95;105650;1257;72610;-23
2023/07/02 17:12:46;;;;;;;10.20;4.60;;;;;;;23.35;66.74;97876.98;105616;1257;61372;-23
2023/07/02 17:15:13;;;;;;;5.00;4.50;;;;;;;23.16;66.92;97875.64;105313;1260;61788;-23
2023/07/02 17:17:41;;;;;;;5.90;3.70;;;;;;;23.07;67.80;97878.42;105521;1257;72897;-23
2023/07/02 17:20:09;;;;;;;6.10;3.90;;;;;;;23.01;68.18;97877.84;105549;1262;74383;-24
2023/07/02 17:22:36;;;;;;;4.60;3.90;;;;;;;23.33;66.83;97876.08;105438;1256;72888;-23
2023/07/02 17:25:04;;;;;;;4.70;3.90;;;;;;;23.47;65.85;97878.55;105161;1260;61105;-23
2023/07/02 17:27:32;;;;;;;4.90;4.00;;;;;;;23.41;66.02;97885.36;105130;1260;61875;-23
2023/07/02 17:30:04;;;;;;;4.90;3.60;;;;;;;23.23;66.41;97885.55;105563;1257;72895;-23
2023/07/02 17:32:32;;;;;;;4.50;3.70;;;;;;;23.04;67.04;97891.00;105535;1257;74363;-23
2023/07/02 17:34:59;;;;;;;5.10;4.00;;;;;;;22.91;67.69;97886.55;105640;1257;72907;-23
2023/07/02 17:37:28;;;;;;;4.80;4.20;;;;;;;22.74;68.32;97887.59;105613;1256;62590;-23
2023/07/02 17:39:55;;;;;;;5.10;4.20;;;;;;;22.60;68.79;97888.60;105544;1260;61130;-23
2023/07/02 17:42:22;;;;;;;5.20;2.90;;;;;;;22.52;69.30;97891.30;105588;1255;73099;-23
2023/07/02 17:44:50;;;;;;;4.80;2.90;;;;;;;23.00;68.58;97886.27;105543;1263;74913;-23
2023/07/02 17:47:19;;;;;;;4.00;3.20;;;;;;;23.55;66.62;97880.31;105600;1257;72496;-24
2023/07/02 17:49:46;;;;;;;4.70;3.60;;;;;;;23.66;66.02;97880.02;105254;1257;61168;-23
2023/07/02 17:52:16;;;;;;;4.40;3.30;;;;;;;23.57;65.93;97885.66;105394;1257;61156;-23
2023/07/02 17:54:49;;;;;;;7.20;4.10;;;;;;;23.42;66.33;97893.83;105338;1263;71551;-23
2023/07/02 17:57:17;;;;;;;5.40;3.60;;;;;;;23.15;67.26;97899.46;105419;1263;74296;-23
2023/07/02 17:59:45;;;;;;;6.70;4.00;;;;;;;22.86;68.31;97905.77;105501;1257;72684;-23
2023/07/02 18:02:14;;;;;;;6.30;4.40;;;;;;;22.59;69.39;97904.30;105538;1257;61125;-23
2023/07/02 18:04:41;;;;;;;5.20;4.20;;;;;;;22.36;70.48;97906.34;105197;1255;61301;-23
2023/07/02 18:07:15;;;;;;;3.10;2.80;;;;;;;22.18;71.85;97905.98;105419;1257;72941;-23
2023/07/02 18:09:45;;;;;;;4.90;3.00;;;;;;;22.65;71.25;97906.21;105475;1257;74409;-23
2023/07/02 18:12:15;;;;;;;6.80;3.40;;;;;;;23.15;69.57;97904.98;105412;1263;72652;-24
2023/07/02 18:14:42;;;;;;;4.40;3.50;;;;;;;23.19;68.92;97909.73;105396;1257;61004;-23
2023/07/02 18:17:10;;;;;;;4.80;3.80;;;;;;;22.99;69.40;97913.98;105673;1260;61177;-23
2023/07/02 18:19:37;;;;;;;9.20;4.90;;;;;;;22.71;70.05;97913.55;105652;1259;73431;-23
2023/07/02 18:22:04;;;;;;;4.80;3.90;;;;;;;22.38;71.22;97915.09;105458;1258;74846;-23
2023/07/02 18:24:41;;;;;;;6.70;4.60;;;;;;;22.08;71.94;97912.20;105427;1257;72694;-23
2023/07/02 18:27:09;;;;;;;4.90;4.00;;;;;;;21.81;72.72;97913.30;105380;1257;61041;-23
2023/07/02 18:29:37;;;;;;;3.90;3.00;;;;;;;21.62;73.67;97921.58;105465;1260;61137;-23
2023/07/02 18:32:06;;;;;;;4.10;3.00;;;;;;;22.00;73.12;97927.38;105320;1258;73094;-23
2023/07/02 18:34:37;;;;;;;4.80;3.40;;;;;;;22.41;71.36;97929.52;105615;1258;74322;-23
2023/07/02 18:37:04;;;;;;;4.50;3.70;;;;;;;22.38;71.09;97937.16;105488;1256;72656;-23
2023/07/02 18:39:33;;;;;;;4.50;3.70;;;;;;;22.16;71.58;97940.86;105473;1258;61149;-24
2023/07/02 18:42:02;;;;;;;4.10;3.30;;;;;;;21.91;72.69;97948.09;105315;1263;61162;-23
2023/07/02 18:44:33;;;;;;;5.10;4.50;;;;;;;21.62;73.73;97952.26;105448;1263;71993;-23
2023/07/02 18:47:20;;;;;;;5.90;4.30;;;;;;;21.36;74.89;97945.28;105535;1257;74359;-23
2023/07/02 18:49:47;;;;;;;3.50;2.80;;;;;;;21.19;75.30;97951.42;105455;1258;72522;-24
2023/07/02 18:52:15;;;;;;;4.80;3.60;;;;;;;21.70;74.50;97953.79;105636;1258;61150;-23
2023/07/02 18:54:42;;;;;;;4.20;3.40;;;;;;;22.09;72.62;97954.76;105181;1262;61220;-23
2023/07/02 18:57:10;;;;;;;4.20;3.60;;;;;;;22.07;71.65;97955.98;105255;1257;74280;-23
2023/07/02 18:59:39;;;;;;;5.90;4.20;;;;;;;21.87;71.92;97959.60;105420;1257;73266;-23
2023/07/02 19:02:06;;;;;;;5.50;4.10;;;;;;;21.66;72.39;97962.85;105421;1258;72602;-23
2023/07/02 19:04:34;;;;;;;5.70;4.40;;;;;;;21.39;72.68;97959.50;105328;1257;61186;-23
2023/07/02 19:07:04;;;;;;;5.30;4.20;;;;;;;21.13;73.33;97958.77;105490;1260;61098;-23
2023/07/02 19:09:35;;;;;;;4.90;3.30;;;;;;;20.94;74.03;97961.45;105328;1258;73879;-23
2023/07/02 19:12:06;;;;;;;5.00;3.00;;;;;;;21.34;73.88;97964.55;105455;1257;74296;-23
2023/07/02 19:14:35;;;;;;;4.30;3.80;;;;;;;21.77;72.03;97967.35;105411;1262;71644;-23
2023/07/02 19:17:06;;;;;;;3.70;3.30;;;;;;;21.73;71.29;97971.48;105600;1257;61054;-23
2023/07/02 19:19:33;;;;;;;6.30;4.20;;;;;;;21.49;71.68;97972.08;105244;1262;61109;-23
2023/07/02 19:22:00;;;;;;;6.40;4.60;;;;;;;21.21;72.41;97971.55;105511;1258;73781;-23
2023/07/02 19:24:28;;;;;;;5.70;4.20;;;;;;;20.93;72.98;97973.75;105180;1258;74215;-23
2023/07/02 19:26:55;;;;;;;10.40;4.10;;;;;;;20.65;73.88;97977.48;105341;1258;73235;-23
2023/07/02 19:29:22;;;;;;;3.50;3.00;;;;;;;20.41;74.80;97975.88;105402;1260;61813;-23
2023/07/02 19:31:49;;;;;;;4.70;3.10;;;;;;;20.78;74.82;97978.73;105326;1256;61108;-23
2023/07/02 19:34:17;;;;;;;4.60;3.60;;;;;;;21.24;73.09;97980.15;105587;1257;73807;-23
2023/07/02 19:36:44;;;;;;;4.70;3.70;;;;;;;21.27;72.43;97981.63;105531;1258;74740;-23
2023/07/02 19:39:17;;;;;;;4.90;4.20;;;;;;;21.09;72.80;97988.98;105153;1266;72662;-23
2023/07/02 19:41:46;;;;;;;5.60;4.30;;;;;;;20.82;73.36;97995.21;105280;1257;61096;-23
2023/07/02 19:44:17;;;;;;;6.40;4.50;;;;;;;20.53;74.02;97996.00;105599;1260;61116;-23
2023/07/02 19:46:44;;;;;;;8.20;4.80;;;;;;;20.27;74.80;98002.25;105474;1258;74529;-23
2023/07/02 19:49:15;;;;;;;4.40;3.00;;;;;;;20.06;75.76;98004.49;105640;1260;74320;-23
2023/07/02 19:51:49;;;;;;;4.00;3.20;;;;;;;20.46;75.91;98007.80;105356;1257;72656;-23
2023/07/02 19:54:17;;;;;;;5.10;3.70;;;;;;;20.85;74.61;98004.35;105453;1257;61086;-23
2023/07/02 19:56:47;;;;;;;6.70;4.00;;;;;;;20.82;74.26;98001.59;105290;1261;61115;-24
2023/07/02 19:59:14;;;;;;;7.70;4.40;;;;;;;20.60;74.56;98006.13;105389;1260;75094;-23
2023/07/02 20:01:42;;;;;;;5.70;4.50;;;;;;;20.33;75.48;98008.84;105532;1260;74318;-23
2023/07/02 20:04:19;;;;;;;9.30;5.10;;;;;;;20.05;76.30;98008.23;105556;1257;72620;-23
2023/07/02 20:06:47;;;;;;;7.80;4.00;;;;;;;19.86;77.64;98008.80;105569;1263;62052;-24
2023/07/02 20:09:14;;;;;;;4.90;3.70;;;;;;;20.27;77.30;98005.10;105596;1260;61240;-23
2023/07/02 20:11:41;;;;;;;6.40;4.70;;;;;;;20.72;75.30;98009.33;105649;1258;73678;-23
2023/07/02 20:14:08;;;;;;;11.50;6.50;;;;;;;20.71;74.76;98012.02;105613;1259;74350;-23
2023/07/02 20:16:35;;;;;;;10.50;6.60;;;;;;;20.49;75.22;98016.86;105654;1258;73232;-23
2023/07/02 20:19:02;;;;;;;12.00;6.20;;;;;;;20.24;75.91;98015.69;105578;1258;61104;-24
2023/07/02 20:21:30;;;;;;;11.60;6.80;;;;;;;20.01;76.75;98023.27;105363;1256;61153;-23
2023/07/02 20:23:57;;;;;;;9.90;5.00;;;;;;;19.82;77.83;98028.65;105575;1258;73676;-23
2023/07/02 20:26:24;;;;;;;11.60;6.00;;;;;;;20.18;77.65;98032.10;105456;1260;74283;-23
2023/07/02 20:28:52;;;;;;;10.60;5.90;;;;;;;20.63;75.88;98030.63;105407;1260;73163;-23
2023/07/02 20:31:19;;;;;;;11.90;6.70;;;;;;;20.67;75.00;98031.09;105399;1257;61723;-23
2023/07/02 20:33:46;;;;;;;12.40;6.20;;;;;;;20.45;75.35;98032.87;105523;1261;61138;-23
2023/07/02 20:36:13;;;;;;;13.80;6.80;;;;;;;20.21;76.12;98029.26;105609;1260;75642;-23
2023/07/02 20:38:42;;;;;;;12.10;6.40;;;;;;;19.96;76.92;98038.45;105227;1263;74095;-23
2023/07/02 20:41:10;;;;;;;9.00;4.20;;;;;;;19.75;77.77;98041.71;105473;1256;72527;-23
2023/07/02 20:43:42;;;;;;;8.00;4.50;;;;;;;20.13;77.66;98043.67;105120;1261;61823;-23
2023/07/02 20:46:10;;;;;;;8.20;4.60;;;;;;;20.59;75.42;98045.10;105425;1261;61192;-23
2023/07/02 20:48:43;;;;;;;6.00;4.20;;;;;;;20.59;74.74;98044.98;105477;1259;73812;-23
2023/07/02 20:51:11;;;;;;;7.70;4.80;;;;;;;20.38;75.07;98046.91;105476;1260;74398;-23
2023/07/02 20:53:38;;;;;;;6.80;5.00;;;;;;;20.14;75.59;98052.17;105339;1254;73137;-23
2023/07/02 20:56:05;;;;;;;6.10;4.90;;;;;;;19.91;76.31;98055.13;105625;1257;61055;-23
2023/07/02 20:58:33;;;;;;;5.80;3.60;;;;;;;19.72;76.98;98061.18;105551;1260;61249;-23
2023/07/02 21:01:01;;;;;;;5.50;3.60;;;;;;;20.07;76.82;98061.06;105587;1258;73453;-24
2023/07/02 21:03:29;;;;;;;6.40;4.80;;;;;;;20.39;75.58;98062.31;105363;1263;74437;-23
2023/07/02 21:05:58;;;;;;;6.30;4.50;;;;;;;20.34;75.99;98070.72;105504;1259;72468;-23
2023/07/02 21:08:25;;;;;;;8.40;5.10;;;;;;;20.17;76.52;98078.70;105687;1257;61045;-23
2023/07/02 21:10:52;;;;;;;9.90;5.20;;;;;;;19.92;77.28;98079.73;105605;1259;61199;-23
2023/07/02 21:13:20;;;;;;;6.80;5.30;;;;;;;19.75;77.68;98075.00;105582;1260;73796;-23
2023/07/02 21:15:56;;;;;;;6.20;3.90;;;;;;;19.64;77.99;98078.77;105629;1258;74304;-23
2023/07/02 21:18:24;;;;;;;6.30;3.80;;;;;;;20.16;77.59;98080.77;105284;1260;72663;-23
2023/07/02 21:20:51;;;;;;;8.30;4.20;;;;;;;20.57;75.76;98080.23;105486;1255;61143;-23
2023/07/02 21:23:18;;;;;;;5.60;3.90;;;;;;;20.57;75.26;98076.40;105624;1258;61183;-23
2023/07/02 21:26:00;;;;;;;6.20;5.30;;;;;;;20.37;75.86;98077.70;105552;1257;73876;-23
2023/07/02 21:28:29;;;;;;;5.40;4.70;;;;;;;20.12;76.62;98078.08;105401;1258;74343;-23
2023/07/02 21:30:56;;;;;;;7.30;5.50;;;;;;;19.91;77.84;98082.48;105586;1256;72422;-23
2023/07/02 21:33:23;;;;;;;5.90;3.80;;;;;;;19.72;79.07;98083.38;105508;1256;61863;-23
2023/07/02 21:35:50;;;;;;;4.70;3.50;;;;;;;20.09;78.63;98081.42;105598;1260;61147;-23
2023/07/02 21:38:18;;;;;;;5.70;4.10;;;;;;;20.55;76.69;98078.86;105622;1257;73812;-23
2023/07/02 21:40:45;;;;;;;7.60;4.40;;;;;;;20.56;76.14;98082.35;105654;1259;74279;-23
2023/07/02 21:43:12;;;;;;;6.60;4.60;;;;;;;20.37;76.66;98084.98;105571;1255;72514;-23
2023/07/02 21:45:39;;;;;;;6.20;5.30;;;;;;;20.11;77.57;98089.06;105530;1258;61244;-23
2023/07/02 21:48:06;;;;;;;5.60;4.80;;;;;;;19.87;78.47;98094.27;105961;1256;61092;-23
2023/07/02 21:50:34;;;;;;;6.80;3.80;;;;;;;19.71;79.32;98095.48;105984;1256;73842;-23
2023/07/02 21:53:01;;;;;;;6.30;4.30;;;;;;;20.13;79.24;98096.73;105955;1257;74275;-23
2023/07/02 21:55:28;;;;;;;4.50;3.80;;;;;;;20.59;77.04;98095.87;105855;1257;71528;-24
2023/07/02 21:57:55;;;;;;;6.10;4.50;;;;;;;20.59;76.28;98100.02;105583;1257;61227;-23
2023/07/02 22:00:22;;;;;;;9.10;4.70;;;;;;;20.42;76.37;98100.82;105881;1256;61092;-23
2023/07/02 22:02:52;;;;;;;6.10;4.80;;;;;;;20.17;77.19;98106.29;105928;1251;73792;-23
2023/07/02 22:05:20;;;;;;;7.50;5.30;;;;;;;19.89;78.32;98105.56;105875;1251;74110;-23
2023/07/02 22:07:47;;;;;;;5.30;3.90;;;;;;;19.65;79.79;98106.59;105665;1254;72467;-23
2023/07/02 22:10:14;;;;;;;5.60;3.90;;;;;;;20.01;79.54;98109.46;105608;1257;61133;-23
2023/07/02 22:12:42;;;;;;;5.30;4.20;;;;;;;20.45;77.65;98106.91;105840;1256;61083;-23
2023/07/02 22:15:09;;;;;;;8.30;4.90;;;;;;;20.50;76.89;98108.59;105934;1256;73625;-23
2023/07/02 22:17:36;;;;;;;8.90;5.10;;;;;;;20.35;77.11;98105.65;105804;1260;74306;-23
2023/07/02 22:20:12;;;;;;;8.30;5.10;;;;;;;20.16;77.37;98110.79;105772;1258;74142;-23
2023/07/02 22:22:40;;;;;;;6.30;5.20;;;;;;;19.91;78.30;98112.70;105584;1260;61311;-23
2023/07/02 22:25:09;;;;;;;5.20;3.70;;;;;;;19.73;79.43;98118.23;105602;1259;61080;-23
2023/07/02 22:27:36;;;;;;;5.70;3.70;;;;;;;20.18;79.27;98122.65;105797;1268;72559;-23
2023/07/02 22:30:04;;;;;;;6.50;4.20;;;;;;;20.68;77.22;98119.30;105969;1257;74353;-23
2023/07/02 22:32:31;;;;;;;7.10;4.90;;;;;;;20.71;76.09;98118.14;105790;1259;71408;-23
2023/07/02 22:34:58;;;;;;;7.80;5.20;;;;;;;20.52;76.33;98119.71;105769;1251;61246;-23
2023/07/02 22:37:27;;;;;;;7.70;4.60;;;;;;;20.30;77.12;98128.46;105839;1257;61179;-23
2023/07/02 22:39:54;;;;;;;6.80;5.70;;;;;;;20.01;78.21;98126.87;105904;1257;72576;-23
2023/07/02 22:42:21;;;;;;;5.10;3.80;;;;;;;19.78;79.56;98133.94;105956;1257;74308;-23
2023/07/02 22:44:48;;;;;;;10.40;4.40;;;;;;;20.14;79.44;98136.90;105868;1253;72644;-23
2023/07/02 22:47:15;;;;;;;8.10;4.40;;;;;;;20.55;77.69;98133.73;105683;1256;61429;-23
2023/07/02 22:49:42;;;;;;;5.40;4.60;;;;;;;20.58;77.12;98134.45;105668;1258;61128;-23
2023/07/02 22:52:09;;;;;;;5.20;4.40;;;;;;;20.40;77.34;98140.92;105729;1259;73800;-23
2023/07/02 22:54:36;;;;;;;7.40;5.30;;;;;;;20.13;78.53;98143.17;105994;1256;74299;-23
2023/07/02 22:57:06;;;;;;;8.60;5.30;;;;;;;19.84;79.65;98144.42;105944;1257;72711;-23
2023/07/02 22:59:33;;;;;;;5.00;3.70;;;;;;;19.64;80.71;98142.63;105643;1257;61630;-23
2023/07/02 23:02:00;;;;;;;6.60;3.90;;;;;;;20.06;80.29;98146.08;105712;1259;61173;-23
2023/07/02 23:04:28;;;;;;;6.40;4.30;;;;;;;20.48;77.89;98144.59;105947;1256;73706;-23
2023/07/02 23:06:55;;;;;;;6.10;4.60;;;;;;;20.52;77.20;98150.75;105596;1257;74308;-23
2023/07/02 23:09:22;;;;;;;5.50;4.60;;;;;;;20.36;77.49;98154.53;105805;1252;73061;-23
2023/07/02 23:11:49;;;;;;;5.40;4.60;;;;;;;20.11;78.44;98161.67;105898;1251;61050;-23
2023/07/02 23:14:16;;;;;;;6.40;4.80;;;;;;;19.83;79.77;98160.96;105961;1255;61173;-23
2023/07/02 23:16:43;;;;;;;5.60;3.50;;;;;;;19.64;80.93;98159.77;105953;1256;73711;-23
2023/07/02 23:19:10;;;;;;;7.80;3.90;;;;;;;20.04;80.24;98160.27;105814;1256;73161;-23
2023/07/02 23:21:42;;;;;;;6.10;4.20;;;;;;;20.43;78.33;98160.80;105990;1254;72599;-23
2023/07/02 23:24:09;;;;;;;9.60;4.80;;;;;;;20.42;77.66;98162.92;105696;1252;61130;-23
2023/07/02 23:26:37;;;;;;;8.70;4.90;;;;;;;20.18;78.30;98162.21;105779;1257;61137;-23
2023/07/02 23:29:05;;;;;;;7.00;4.80;;;;;;;19.93;79.51;98162.97;105756;1257;73762;-23
2023/07/02 23:31:33;;;;;;;6.20;5.20;;;;;;;19.68;80.72;98162.16;105830;1259;74702;-23
2023/07/02 23:34:00;;;;;;;5.10;3.70;;;;;;;19.52;81.99;98163.72;105835;1260;71662;-23
2023/07/02 23:36:27;;;;;;;5.30;3.70;;;;;;;19.92;81.18;98168.02;105929;1256;61147;-23
2023/07/02 23:38:54;;;;;;;6.00;4.30;;;;;;;20.31;79.07;98172.04;105633;1256;61121;-23
2023/07/02 23:41:21;;;;;;;7.10;4.40;;;;;;;20.29;78.72;98173.64;105829;1251;73902;-23
2023/07/02 23:43:50;;;;;;;7.30;4.70;;;;;;;20.14;79.06;98178.13;105866;1256;74016;-23
2023/07/02 23:46:17;;;;;;;11.20;5.20;;;;;;;19.87;80.07;98180.79;105937;1257;72670;-23
2023/07/02 23:48:44;;;;;;;6.60;3.70;;;;;;;19.61;81.58;98181.27;105861;1254;61965;-23
2023/07/02 23:51:11;;;;;;;6.20;4.10;;;;;;;19.96;81.32;98183.45;105920;1255;61083;-23
2023/07/02 23:53:38;;;;;;;6.60;4.00;;;;;;;20.34;79.27;98181.46;105988;1257;73789;-23
2023/07/02 23:56:04;;;;;;;6.90;4.30;;;;;;;20.32;79.06;98184.52;105933;1257;74291;-23
2023/07/02 23:58:32;;;;;;;6.00;4.50;;;;;;;20.10;79.66;98182.41;105930;1257;72690;-23
